Time;durP1;ratioP1;P1;durP2;ratioP2;P2;SDS_P1;SDS_P2;PMS_P1;PMS_P2;Temp;Humidity;BMP_temperature;BMP_pressure;BME280_temperature;BME280_humidity;BME280_pressure;Samples;Min_cycle;Max_cycle;Signal;HPM_P1;HPM_P2
2024/03/24 00:00:25;;;;;;;0.70;0.70;;;;;;;;;;4882268;29;20239;-90
2024/03/24 00:02:51;;;;;;;2.50;1.20;;;;;;;;;;4913062;29;20285;-88
2024/03/24 00:05:17;;;;;;;0.77;0.77;;;;;;;;;;4922483;29;20214;-89
2024/03/24 00:07:43;;;;;;;0.50;0.50;;;;;;;;;;4901851;29;20241;-88
2024/03/24 00:10:10;;;;;;;15.13;1.73;;;;;;;;;;4871764;29;20343;-91
2024/03/24 00:12:36;;;;;;;0.93;0.60;;;;;;;;;;4885167;29;20235;-92
2024/03/24 00:15:02;;;;;;;2.77;1.33;;;;;;;;;;4917926;29;20741;-90
2024/03/24 00:17:28;;;;;;;0.43;0.43;;;;;;;;;;4887405;29;20230;-93
2024/03/24 00:19:54;;;;;;;0.40;0.40;;;;;;;;;;4871245;29;20238;-90
2024/03/24 00:22:20;;;;;;;0.40;0.40;;;;;;;;;;4902242;29;20267;-90
2024/03/24 00:24:47;;;;;;;1.37;1.33;;;;;;;;;;4886600;29;20321;-88
2024/03/24 00:27:13;;;;;;;2.33;1.00;;;;;;;;;;4886384;29;20242;-89
2024/03/24 00:29:39;;;;;;;1.53;1.43;;;;;;;;;;4870545;29;20215;-89
2024/03/24 00:32:05;;;;;;;1.00;1.00;;;;;;;;;;4869974;29;20235;-91
2024/03/24 00:34:32;;;;;;;1.40;1.40;;;;;;;;;;4917267;29;20579;-88
2024/03/24 00:36:58;;;;;;;1.17;1.07;;;;;;;;;;4885867;29;20242;-92
2024/03/24 00:39:24;;;;;;;1.40;0.87;;;;;;;;;;4913364;29;20710;-91
2024/03/24 00:41:50;;;;;;;0.40;0.40;;;;;;;;;;4921377;29;20206;-91
2024/03/24 00:44:18;;;;;;;0.40;0.40;;;;;;;;;;4922388;29;20206;-92
2024/03/24 00:46:45;;;;;;;0.83;0.70;;;;;;;;;;4920971;29;20326;-92
2024/03/24 00:49:11;;;;;;;0.20;0.13;;;;;;;;;;4921491;29;20313;-91
2024/03/24 00:51:37;;;;;;;0.40;0.40;;;;;;;;;;4905350;29;20230;-92
2024/03/24 00:54:03;;;;;;;0.53;0.50;;;;;;;;;;4920931;29;20721;-90
2024/03/24 00:56:29;;;;;;;0.30;0.30;;;;;;;;;;4905824;29;20206;-88
2024/03/24 00:58:55;;;;;;;0.30;0.30;;;;;;;;;;4936446;29;20261;-91
2024/03/24 01:01:21;;;;;;;2.03;1.77;;;;;;;;;;4920329;29;20237;-91
2024/03/24 01:03:47;;;;;;;0.53;0.53;;;;;;;;;;4936139;29;20237;-90
2024/03/24 01:06:14;;;;;;;0.50;0.50;;;;;;;;;;4920714;29;20238;-92
2024/03/24 01:08:41;;;;;;;0.20;0.20;;;;;;;;;;4920960;29;20253;-91
2024/03/24 01:11:07;;;;;;;0.30;0.30;;;;;;;;;;4919930;29;20250;-89
2024/03/24 01:13:33;;;;;;;0.40;0.40;;;;;;;;;;4919891;29;20248;-90
2024/03/24 01:15:59;;;;;;;7.80;0.70;;;;;;;;;;4904146;29;20257;-88
2024/03/24 01:18:25;;;;;;;0.20;0.20;;;;;;;;;;4919986;29;20264;-91
2024/03/24 01:20:52;;;;;;;0.30;0.30;;;;;;;;;;4904145;29;20204;-90
2024/03/24 01:23:18;;;;;;;0.30;0.30;;;;;;;;;;4919877;29;20256;-90
2024/03/24 01:25:45;;;;;;;0.30;0.30;;;;;;;;;;4919597;29;20309;-91
2024/03/24 01:28:11;;;;;;;0.43;0.43;;;;;;;;;;4903790;29;20311;-93
2024/03/24 01:30:37;;;;;;;0.40;0.40;;;;;;;;;;4904273;29;20276;-90
2024/03/24 01:33:03;;;;;;;0.60;0.60;;;;;;;;;;4919832;29;20238;-90
2024/03/24 01:35:29;;;;;;;6.10;0.63;;;;;;;;;;4920904;29;20210;-91
2024/03/24 01:37:55;;;;;;;0.20;0.20;;;;;;;;;;4919735;29;20271;-91
2024/03/24 01:40:21;;;;;;;0.30;0.30;;;;;;;;;;4935400;29;20238;-91
2024/03/24 01:42:47;;;;;;;0.17;0.17;;;;;;;;;;4919404;29;20234;-89
2024/03/24 01:45:13;;;;;;;0.73;0.70;;;;;;;;;;4919308;29;20233;-89
2024/03/24 01:47:40;;;;;;;0.30;0.30;;;;;;;;;;4920531;29;20292;-89
2024/03/24 01:50:06;;;;;;;0.30;0.30;;;;;;;;;;4919014;29;20238;-90
2024/03/24 01:52:32;;;;;;;0.27;0.27;;;;;;;;;;4915607;29;20230;-90
2024/03/24 01:54:58;;;;;;;0.80;0.33;;;;;;;;;;4883906;29;20236;-90
2024/03/24 01:57:25;;;;;;;0.80;0.80;;;;;;;;;;4884236;29;20276;-92
2024/03/24 01:59:51;;;;;;;0.70;0.70;;;;;;;;;;4884660;29;20293;-88
2024/03/24 02:02:17;;;;;;;0.23;0.23;;;;;;;;;;4885044;29;20210;-89
2024/03/24 02:04:49;;;;;;;1.10;0.47;;;;;;;;;;4868362;29;20242;-87
2024/03/24 02:07:15;;;;;;;1.57;1.43;;;;;;;;;;4883628;29;20238;-90
2024/03/24 02:09:45;;;;;;;0.60;0.30;;;;;;;;;;4883744;29;20631;-88
2024/03/24 02:12:11;;;;;;;0.50;0.50;;;;;;;;;;4884456;29;20242;-92
2024/03/24 02:14:37;;;;;;;0.30;0.30;;;;;;;;;;4915994;29;20203;-92
2024/03/24 02:17:03;;;;;;;0.20;0.20;;;;;;;;;;4868616;29;20838;-93
2024/03/24 02:19:30;;;;;;;0.20;0.20;;;;;;;;;;4880570;29;20239;-88
2024/03/24 02:21:56;;;;;;;0.20;0.20;;;;;;;;;;4880617;29;20290;-89
2024/03/24 02:24:22;;;;;;;1.20;0.90;;;;;;;;;;4881589;29;20237;-89
2024/03/24 02:26:49;;;;;;;0.23;0.23;;;;;;;;;;4918856;29;20241;-91
2024/03/24 02:29:15;;;;;;;1.53;0.67;;;;;;;;;;4920229;29;20249;-88
2024/03/24 02:31:41;;;;;;;0.40;0.40;;;;;;;;;;4918712;29;20321;-90
2024/03/24 02:34:07;;;;;;;0.60;0.57;;;;;;;;;;4902881;29;20237;-89
2024/03/24 02:36:34;;;;;;;0.67;0.63;;;;;;;;;;4891670;29;20257;-89
2024/03/24 02:39:00;;;;;;;0.53;0.50;;;;;;;;;;4906839;29;20230;-89
2024/03/24 02:41:26;;;;;;;0.43;0.43;;;;;;;;;;4907243;29;20213;-90
2024/03/24 02:43:52;;;;;;;0.20;0.20;;;;;;;;;;4922949;29;20284;-87
2024/03/24 02:46:18;;;;;;;0.80;0.57;;;;;;;;;;4906681;29;20245;-91
2024/03/24 02:48:44;;;;;;;0.30;0.30;;;;;;;;;;4897608;29;20238;-90
2024/03/24 02:51:10;;;;;;;0.40;0.40;;;;;;;;;;4907649;29;20242;-91
2024/03/24 02:53:36;;;;;;;0.20;0.20;;;;;;;;;;4909417;29;20206;-90
2024/03/24 02:56:03;;;;;;;0.20;0.20;;;;;;;;;;4908429;29;20234;-89
2024/03/24 02:58:29;;;;;;;0.63;0.53;;;;;;;;;;4923462;29;20249;-86
2024/03/24 03:00:55;;;;;;;0.83;0.83;;;;;;;;;;4922298;29;20237;-89
2024/03/24 03:03:21;;;;;;;0.47;0.47;;;;;;;;;;4923200;29;20234;-91
2024/03/24 03:05:47;;;;;;;0.20;0.20;;;;;;;;;;4922111;29;20232;-89
2024/03/24 03:08:13;;;;;;;0.30;0.30;;;;;;;;;;4920210;29;20214;-87
2024/03/24 03:10:39;;;;;;;0.20;0.20;;;;;;;;;;4888793;29;20242;-90
2024/03/24 03:13:06;;;;;;;0.50;0.50;;;;;;;;;;4889275;29;20234;-90
2024/03/24 03:15:32;;;;;;;0.20;0.20;;;;;;;;;;4874246;29;20235;-87
2024/03/24 03:17:58;;;;;;;1.33;1.30;;;;;;;;;;4862858;29;20754;-87
2024/03/24 03:20:24;;;;;;;0.67;0.67;;;;;;;;;;4887846;29;20213;-89
2024/03/24 03:22:50;;;;;;;0.20;0.20;;;;;;;;;;4887003;29;20328;-92
2024/03/24 03:25:16;;;;;;;0.30;0.30;;;;;;;;;;4887023;29;20242;-92
2024/03/24 03:27:44;;;;;;;3.23;2.03;;;;;;;;;;4887754;29;20239;-92
2024/03/24 03:30:11;;;;;;;2.97;0.50;;;;;;;;;;4887665;29;20245;-90
2024/03/24 03:32:37;;;;;;;0.37;0.37;;;;;;;;;;4887632;29;20273;-89
2024/03/24 03:35:03;;;;;;;0.70;0.70;;;;;;;;;;4886880;29;20286;-90
2024/03/24 03:37:30;;;;;;;0.20;0.20;;;;;;;;;;4873525;29;20242;-93
2024/03/24 03:39:56;;;;;;;0.30;0.30;;;;;;;;;;4900216;29;20242;-89
2024/03/24 03:42:23;;;;;;;0.83;0.80;;;;;;;;;;4938781;29;20312;-89
2024/03/24 03:44:52;;;;;;;0.60;0.60;;;;;;;;;;4906751;29;20214;-90
2024/03/24 03:47:19;;;;;;;0.20;0.20;;;;;;;;;;4922716;29;20218;-89
2024/03/24 03:49:52;;;;;;;0.30;0.30;;;;;;;;;;4922343;29;20237;-89
2024/03/24 03:52:25;;;;;;;0.20;0.20;;;;;;;;;;4921963;29;20317;-91
2024/03/24 03:54:53;;;;;;;1.07;1.07;;;;;;;;;;4922244;29;20234;-90
2024/03/24 03:57:19;;;;;;;0.30;0.30;;;;;;;;;;4941157;29;20234;-89
2024/03/24 03:59:45;;;;;;;1.80;0.70;;;;;;;;;;4919463;29;20265;-90
2024/03/24 04:02:12;;;;;;;0.87;0.87;;;;;;;;;;4922943;29;20210;-91
2024/03/24 04:04:38;;;;;;;0.77;0.77;;;;;;;;;;4907291;29;20697;-90
2024/03/24 04:07:04;;;;;;;0.10;0.10;;;;;;;;;;4922556;29;20320;-89
2024/03/24 04:09:30;;;;;;;0.37;0.23;;;;;;;;;;4921904;29;20237;-91
2024/03/24 04:11:57;;;;;;;0.47;0.40;;;;;;;;;;4921528;29;20206;-92
2024/03/24 04:14:23;;;;;;;19.53;0.70;;;;;;;;;;4921679;29;20241;-89
2024/03/24 04:16:50;;;;;;;0.33;0.33;;;;;;;;;;4901541;29;20246;-89
2024/03/24 04:19:17;;;;;;;2.20;0.50;;;;;;;;;;4885937;29;20247;-90
2024/03/24 04:21:43;;;;;;;0.97;0.97;;;;;;;;;;4870401;29;20241;-91
2024/03/24 04:24:10;;;;;;;0.87;0.87;;;;;;;;;;4885984;29;20259;-91
2024/03/24 04:26:36;;;;;;;0.40;0.40;;;;;;;;;;4886324;29;20211;-90
2024/03/24 04:29:02;;;;;;;0.20;0.20;;;;;;;;;;4886475;29;20295;-88
2024/03/24 04:31:28;;;;;;;23.73;2.30;;;;;;;;;;4885728;29;20239;-92
2024/03/24 04:33:55;;;;;;;0.47;0.47;;;;;;;;;;4916932;29;20257;-91
2024/03/24 04:36:21;;;;;;;0.37;0.37;;;;;;;;;;4885260;29;20270;-90
2024/03/24 04:38:47;;;;;;;0.20;0.20;;;;;;;;;;4885384;29;20313;-90
2024/03/24 04:41:13;;;;;;;2.57;0.87;;;;;;;;;;4886118;29;20297;-92
2024/03/24 04:43:40;;;;;;;0.77;0.57;;;;;;;;;;4916496;29;20230;-90
2024/03/24 04:46:06;;;;;;;0.63;0.63;;;;;;;;;;4861911;29;20314;-90
2024/03/24 04:48:35;;;;;;;2.47;0.43;;;;;;;;;;4914346;29;20377;-91
2024/03/24 04:51:01;;;;;;;1.33;0.77;;;;;;;;;;4920801;29;20230;-91
2024/03/24 04:53:27;;;;;;;0.30;0.30;;;;;;;;;;4921571;29;20202;-89
2024/03/24 04:55:53;;;;;;;0.47;0.47;;;;;;;;;;4920733;29;20233;-91
2024/03/24 04:58:20;;;;;;;0.50;0.50;;;;;;;;;;4919955;29;20321;-91
2024/03/24 05:00:46;;;;;;;0.77;0.60;;;;;;;;;;4911792;29;20244;-89
2024/03/24 05:03:12;;;;;;;0.97;0.77;;;;;;;;;;4895311;29;20710;-90
2024/03/24 05:05:39;;;;;;;5.47;1.67;;;;;;;;;;4925228;29;20221;-89
2024/03/24 05:08:06;;;;;;;0.37;0.37;;;;;;;;;;4936042;29;20243;-92
2024/03/24 05:10:33;;;;;;;0.20;0.20;;;;;;;;;;4920708;29;20245;-92
2024/03/24 05:12:59;;;;;;;2.13;0.97;;;;;;;;;;4920536;29;20241;-91
2024/03/24 05:15:25;;;;;;;0.30;0.30;;;;;;;;;;4920441;29;20369;-90
2024/03/24 05:17:54;;;;;;;0.40;0.40;;;;;;;;;;4905065;29;20284;-92
2024/03/24 05:20:20;;;;;;;5.43;0.60;;;;;;;;;;4921179;29;20635;-90
2024/03/24 05:22:46;;;;;;;0.23;0.23;;;;;;;;;;4928587;29;20253;-89
2024/03/24 05:25:14;;;;;;;2.00;1.80;;;;;;;;;;4920263;29;20237;-91
2024/03/24 05:27:40;;;;;;;1.03;1.03;;;;;;;;;;4904520;29;20412;-89
2024/03/24 05:30:06;;;;;;;0.27;0.27;;;;;;;;;;4936007;29;20229;-89
2024/03/24 05:32:34;;;;;;;0.43;0.43;;;;;;;;;;4920231;29;20205;-91
2024/03/24 05:35:00;;;;;;;1.33;1.23;;;;;;;;;;4904042;29;20244;-91
2024/03/24 05:37:28;;;;;;;1.60;0.93;;;;;;;;;;4935930;29;20253;-90
2024/03/24 05:39:54;;;;;;;4.47;1.20;;;;;;;;;;4915703;29;20246;-92
2024/03/24 05:42:20;;;;;;;0.33;0.33;;;;;;;;;;4869973;29;20241;-91
2024/03/24 05:44:46;;;;;;;1.07;0.60;;;;;;;;;;4885182;29;20221;-91
2024/03/24 05:47:12;;;;;;;0.30;0.30;;;;;;;;;;4869841;29;20207;-92
2024/03/24 05:49:38;;;;;;;0.70;0.70;;;;;;;;;;4868956;29;20334;-90
2024/03/24 05:52:05;;;;;;;0.27;0.27;;;;;;;;;;4884458;29;20234;-89
2024/03/24 05:54:31;;;;;;;0.30;0.30;;;;;;;;;;4884176;29;20262;-88
2024/03/24 05:56:57;;;;;;;0.60;0.60;;;;;;;;;;4884048;29;20214;-92
2024/03/24 05:59:23;;;;;;;0.20;0.20;;;;;;;;;;4900375;29;20230;-91
2024/03/24 06:01:50;;;;;;;0.20;0.20;;;;;;;;;;4884620;29;20276;-89
2024/03/24 06:04:16;;;;;;;0.40;0.40;;;;;;;;;;4883581;29;20235;-91
2024/03/24 06:06:45;;;;;;;1.27;0.57;;;;;;;;;;4899099;29;20261;-89
2024/03/24 06:09:11;;;;;;;0.30;0.30;;;;;;;;;;4884759;29;20237;-91
2024/03/24 06:11:37;;;;;;;2.60;0.63;;;;;;;;;;4915502;29;20217;-92
2024/03/24 06:14:03;;;;;;;0.33;0.33;;;;;;;;;;4922836;29;20271;-90
2024/03/24 06:16:32;;;;;;;0.40;0.40;;;;;;;;;;4938129;29;20253;-91
2024/03/24 06:18:58;;;;;;;0.20;0.20;;;;;;;;;;4922299;29;20237;-92
2024/03/24 06:21:24;;;;;;;0.10;0.10;;;;;;;;;;4921985;29;20272;-90
2024/03/24 06:23:53;;;;;;;1.30;0.50;;;;;;;;;;4922528;29;20241;-88
2024/03/24 06:26:20;;;;;;;0.53;0.37;;;;;;;;;;4923335;29;20206;-91
2024/03/24 06:28:46;;;;;;;1.50;0.27;;;;;;;;;;4922167;29;20236;-91
2024/03/24 06:31:12;;;;;;;0.57;0.53;;;;;;;;;;4921885;29;20233;-92
2024/03/24 06:33:38;;;;;;;0.67;0.67;;;;;;;;;;4938014;29;20233;-90
2024/03/24 06:36:04;;;;;;;0.47;0.47;;;;;;;;;;4922311;29;20209;-91
2024/03/24 06:38:31;;;;;;;0.30;0.30;;;;;;;;;;4922687;29;20222;-89
2024/03/24 06:40:57;;;;;;;0.37;0.37;;;;;;;;;;4921521;29;20261;-93
2024/03/24 06:43:30;;;;;;;1.77;0.47;;;;;;;;;;4921463;29;20238;-90
2024/03/24 06:45:56;;;;;;;0.30;0.30;;;;;;;;;;4937521;29;20234;-88
2024/03/24 06:48:22;;;;;;;0.30;0.30;;;;;;;;;;4905346;29;20244;-90
2024/03/24 06:50:48;;;;;;;0.20;0.20;;;;;;;;;;4937378;29;20210;-89
2024/03/24 06:53:17;;;;;;;5.87;1.70;;;;;;;;;;4921866;29;20219;-88
2024/03/24 06:55:45;;;;;;;0.37;0.30;;;;;;;;;;4921583;29;20247;-90
2024/03/24 06:58:13;;;;;;;20.27;0.83;;;;;;;;;;4937483;29;20680;-87
2024/03/24 07:00:39;;;;;;;0.20;0.20;;;;;;;;;;4921748;29;20237;-90
2024/03/24 07:03:06;;;;;;;0.40;0.40;;;;;;;;;;4921383;28;20250;-90
2024/03/24 07:05:32;;;;;;;0.23;0.23;;;;;;;;;;4907692;29;20225;-90
2024/03/24 07:07:58;;;;;;;1.60;0.53;;;;;;;;;;4871748;29;1205879;-90
2024/03/24 07:10:24;;;;;;;0.10;0.10;;;;;;;;;;4940162;29;20230;-91
2024/03/24 07:12:50;;;;;;;0.40;0.40;;;;;;;;;;4922555;29;20230;-89
2024/03/24 07:15:16;;;;;;;0.30;0.30;;;;;;;;;;4922322;29;20234;-90
2024/03/24 07:17:45;;;;;;;0.50;0.50;;;;;;;;;;4922788;29;20208;-91
2024/03/24 07:20:14;;;;;;;0.30;0.30;;;;;;;;;;4881677;29;20280;-91
2024/03/24 07:22:40;;;;;;;0.20;0.20;;;;;;;;;;4905467;29;20233;-88
2024/03/24 07:25:08;;;;;;;0.77;0.77;;;;;;;;;;4901973;29;20241;-88
2024/03/24 07:27:34;;;;;;;0.40;0.40;;;;;;;;;;4870942;29;20675;-91
2024/03/24 07:30:00;;;;;;;0.77;0.77;;;;;;;;;;4871420;29;20214;-88
2024/03/24 07:32:27;;;;;;;1.60;0.73;;;;;;;;;;4887077;29;20203;-88
2024/03/24 07:34:53;;;;;;;0.50;0.50;;;;;;;;;;4886393;29;20234;-88
2024/03/24 07:37:19;;;;;;;0.30;0.30;;;;;;;;;;4871224;29;20248;-93
2024/03/24 07:39:45;;;;;;;0.33;0.33;;;;;;;;;;4875999;29;20238;-88
2024/03/24 07:42:12;;;;;;;5.83;0.77;;;;;;;;;;4886713;29;20251;-90
2024/03/24 07:44:39;;;;;;;0.50;0.50;;;;;;;;;;4887704;29;20218;-87
2024/03/24 07:47:05;;;;;;;0.20;0.20;;;;;;;;;;4886399;29;20270;-92
2024/03/24 07:49:34;;;;;;;1.20;1.17;;;;;;;;;;4886381;29;20290;-91
2024/03/24 07:52:00;;;;;;;0.30;0.30;;;;;;;;;;4885660;29;20273;-90
2024/03/24 07:54:27;;;;;;;6.67;0.50;;;;;;;;;;4870581;29;20807;-89
2024/03/24 07:56:53;;;;;;;15.63;0.77;;;;;;;;;;4886721;29;20219;-88
2024/03/24 07:59:19;;;;;;;0.10;0.10;;;;;;;;;;4917744;29;20246;-90
2024/03/24 08:01:45;;;;;;;0.30;0.30;;;;;;;;;;4874231;29;20234;-89
2024/03/24 08:04:11;;;;;;;7.73;0.73;;;;;;;;;;4921339;29;20252;-88
2024/03/24 08:06:38;;;;;;;2.00;1.80;;;;;;;;;;4921061;29;20708;-89
2024/03/24 08:09:04;;;;;;;3.23;0.67;;;;;;;;;;4921380;29;20293;-89
2024/03/24 08:11:30;;;;;;;0.10;0.10;;;;;;;;;;4922076;29;20217;-90
2024/03/24 08:13:56;;;;;;;0.10;0.10;;;;;;;;;;4921129;29;20245;-92
2024/03/24 08:16:22;;;;;;;0.20;0.20;;;;;;;;;;4921220;29;20313;-91
2024/03/24 08:18:48;;;;;;;0.13;0.13;;;;;;;;;;4920684;29;20245;-87
2024/03/24 08:21:16;;;;;;;3.30;0.83;;;;;;;;;;4936540;29;20245;-87
2024/03/24 08:23:42;;;;;;;0.40;0.40;;;;;;;;;;4937091;29;20210;-90
2024/03/24 08:26:09;;;;;;;0.60;0.50;;;;;;;;;;4935966;29;20318;-90
2024/03/24 08:28:35;;;;;;;7.53;1.07;;;;;;;;;;4920603;29;20309;-87
2024/03/24 08:31:01;;;;;;;1.00;1.00;;;;;;;;;;4920872;29;20289;-91
2024/03/24 08:33:27;;;;;;;0.73;0.73;;;;;;;;;;4919036;29;20257;-90
2024/03/24 08:35:54;;;;;;;1.00;1.00;;;;;;;;;;4909192;29;20210;-89
2024/03/24 08:38:20;;;;;;;0.20;0.20;;;;;;;;;;4901454;29;20231;-89
2024/03/24 08:40:46;;;;;;;0.40;0.40;;;;;;;;;;4900636;29;20299;-91
2024/03/24 08:43:12;;;;;;;0.60;0.60;;;;;;;;;;4901236;29;20242;-88
2024/03/24 08:45:38;;;;;;;0.30;0.30;;;;;;;;;;4900536;29;20275;-90
2024/03/24 08:48:05;;;;;;;0.77;0.77;;;;;;;;;;4900520;29;20203;-91
2024/03/24 08:50:31;;;;;;;0.40;0.40;;;;;;;;;;4863491;29;20219;-90
2024/03/24 08:52:59;;;;;;;2.50;0.30;;;;;;;;;;4862993;29;20250;-89
2024/03/24 08:55:28;;;;;;;0.30;0.30;;;;;;;;;;4862745;29;20791;-91
2024/03/24 08:57:54;;;;;;;0.93;0.93;;;;;;;;;;4862616;29;20753;-92
2024/03/24 09:00:25;;;;;;;1.87;1.13;;;;;;;;;;4847485;29;20327;-90
2024/03/24 09:02:51;;;;;;;1.13;0.70;;;;;;;;;;4855396;29;20309;-90
2024/03/24 09:05:22;;;;;;;0.67;0.67;;;;;;;;;;4879368;29;20296;-90
2024/03/24 09:07:49;;;;;;;5.97;0.80;;;;;;;;;;4895177;29;20293;-86
2024/03/24 09:10:15;;;;;;;2.10;1.23;;;;;;;;;;4899689;29;20725;-89
2024/03/24 09:12:41;;;;;;;1.33;0.73;;;;;;;;;;4884263;29;20702;-90
2024/03/24 09:15:10;;;;;;;0.50;0.50;;;;;;;;;;4884157;29;22104;-90
2024/03/24 09:17:36;;;;;;;2.30;1.20;;;;;;;;;;4885740;29;20203;-90
2024/03/24 09:20:05;;;;;;;0.30;0.30;;;;;;;;;;4899762;29;20243;-88
2024/03/24 09:22:34;;;;;;;0.27;0.27;;;;;;;;;;4916752;29;20233;-90
2024/03/24 09:25:08;;;;;;;0.20;0.20;;;;;;;;;;4920599;29;20241;-87
2024/03/24 09:27:36;;;;;;;1.33;0.80;;;;;;;;;;4935359;29;20729;-91
2024/03/24 09:30:03;;;;;;;1.83;1.33;;;;;;;;;;4920308;29;20198;-88
2024/03/24 09:32:29;;;;;;;0.33;0.33;;;;;;;;;;4938767;29;20209;-88
2024/03/24 09:34:55;;;;;;;0.20;0.20;;;;;;;;;;4920059;28;20292;-90
2024/03/24 09:37:27;;;;;;;4.07;1.07;;;;;;;;;;4936762;28;20238;-88
2024/03/24 09:40:12;;;;;;;0.20;0.20;;;;;;;;;;4912606;29;20658;-91
2024/03/24 09:42:56;;;;;;;1.73;1.20;;;;;;;;;;4912845;29;20233;-91
2024/03/24 09:45:25;;;;;;;1.63;1.53;;;;;;;;;;4919249;29;20264;-90
2024/03/24 09:47:54;;;;;;;1.17;0.40;;;;;;;;;;4919826;29;20209;-90
2024/03/24 09:50:21;;;;;;;10.80;1.03;;;;;;;;;;4919939;29;20233;-89
2024/03/24 09:52:47;;;;;;;0.53;0.53;;;;;;;;;;4919270;29;20241;-91
2024/03/24 09:55:16;;;;;;;5.53;2.67;;;;;;;;;;4919360;29;20249;-84
2024/03/24 09:57:43;;;;;;;7.17;2.97;;;;;;;;;;4903755;29;20241;-90
2024/03/24 10:00:10;;;;;;;1.20;1.20;;;;;;;;;;4919702;29;20255;-90
2024/03/24 10:02:39;;;;;;;0.67;0.67;;;;;;;;;;4919413;29;20688;-93
2024/03/24 10:05:06;;;;;;;3.40;1.40;;;;;;;;;;4919561;29;20244;-93
2024/03/24 10:07:32;;;;;;;2.10;0.50;;;;;;;;;;4903459;29;20266;-91
2024/03/24 10:09:58;;;;;;;1.77;0.50;;;;;;;;;;4919466;29;20238;-89
2024/03/24 10:12:34;;;;;;;;;;;;;;;;;;;;;
2024/03/24 10:19:12;;;;;;;0.20;0.20;;;;;;;;;;4919586;28;20787;-89
2024/03/24 10:21:38;;;;;;;0.33;0.33;;;;;;;;;;4919128;29;20248;-88
2024/03/24 10:24:10;;;;;;;0.20;0.20;;;;;;;;;;4935061;29;20210;-89
2024/03/24 10:26:37;;;;;;;1.23;0.93;;;;;;;;;;4920576;29;20622;-89
2024/03/24 10:29:08;;;;;;;2.80;1.20;;;;;;;;;;4920370;29;20244;-89
2024/03/24 10:31:35;;;;;;;0.23;0.23;;;;;;;;;;4919224;29;20293;-91
2024/03/24 10:34:11;;;;;;;1.17;0.70;;;;;;;;;;4911146;29;20241;-90
2024/03/24 10:36:43;;;;;;;0.33;0.33;;;;;;;;;;4919630;29;20283;-91
2024/03/24 10:39:09;;;;;;;2.10;1.57;;;;;;;;;;4918878;29;20399;-90
2024/03/24 10:41:38;;;;;;;0.93;0.83;;;;;;;;;;4920075;29;20217;-88
2024/03/24 10:44:04;;;;;;;1.33;0.67;;;;;;;;;;4933907;29;20826;-88
2024/03/24 10:46:51;;;;;;;0.77;0.77;;;;;;;;;;4934360;29;20302;-89
2024/03/24 10:49:20;;;;;;;1.17;1.07;;;;;;;;;;4918714;29;20265;-87
2024/03/24 10:51:49;;;;;;;0.13;0.13;;;;;;;;;;4934567;29;20240;-89
2024/03/24 10:54:20;;;;;;;1.50;0.33;;;;;;;;;;4914691;29;20242;-89
2024/03/24 10:56:46;;;;;;;0.60;0.40;;;;;;;;;;4900903;29;20265;-91
2024/03/24 10:59:20;;;;;;;12.70;0.70;;;;;;;;;;4886308;29;20298;-90
2024/03/24 11:01:48;;;;;;;0.87;0.50;;;;;;;;;;4902322;29;20253;-88
2024/03/24 11:04:15;;;;;;;1.67;0.83;;;;;;;;;;4902749;29;20238;-88
2024/03/24 11:06:41;;;;;;;0.10;0.10;;;;;;;;;;4893869;29;20250;-91
2024/03/24 11:09:15;;;;;;;2.67;0.77;;;;;;;;;;4902306;29;20289;-93
2024/03/24 11:11:42;;;;;;;5.17;1.77;;;;;;;;;;4903031;29;20262;-88
2024/03/24 11:14:09;;;;;;;0.40;0.40;;;;;;;;;;4902740;29;20382;-88
2024/03/24 11:16:36;;;;;;;1.37;0.53;;;;;;;;;;4901588;29;20768;-88
2024/03/24 11:19:06;;;;;;;0.20;0.20;;;;;;;;;;4901730;29;20246;-92
2024/03/24 11:21:39;;;;;;;5.43;0.90;;;;;;;;;;4891927;29;20241;-87
2024/03/24 11:24:23;;;;;;;0.20;0.20;;;;;;;;;;4886695;29;20210;-89
2024/03/24 11:26:49;;;;;;;9.93;1.27;;;;;;;;;;4921897;28;20202;-87
2024/03/24 11:29:36;;;;;;;0.40;0.40;;;;;;;;;;4907194;29;20284;-89
2024/03/24 11:32:03;;;;;;;8.00;0.87;;;;;;;;;;4929369;29;20782;-92
2024/03/24 11:34:29;;;;;;;1.20;0.50;;;;;;;;;;4929245;29;20237;-88
2024/03/24 11:36:56;;;;;;;2.17;1.10;;;;;;;;;;4921598;29;20264;-89
2024/03/24 11:39:22;;;;;;;1.80;1.70;;;;;;;;;;4922453;29;20240;-90
2024/03/24 11:42:06;;;;;;;0.20;0.20;;;;;;;;;;4922287;29;20229;-86
2024/03/24 11:44:32;;;;;;;0.53;0.30;;;;;;;;;;4924157;29;20195;-88
2024/03/24 11:47:03;;;;;;;3.10;0.93;;;;;;;;;;4921335;29;20744;-88
2024/03/24 11:49:34;;;;;;;0.93;0.93;;;;;;;;;;4921738;29;20693;-89
2024/03/24 11:52:01;;;;;;;3.10;0.83;;;;;;;;;;4921363;29;20316;-91
2024/03/24 11:54:28;;;;;;;0.60;0.60;;;;;;;;;;4922217;29;20234;-90
2024/03/24 11:56:55;;;;;;;5.77;1.70;;;;;;;;;;4906193;29;20206;-85
2024/03/24 11:59:22;;;;;;;2.33;0.67;;;;;;;;;;4902701;29;20230;-92
2024/03/24 12:08:17;;;;;;;3.40;1.90;;;;;;;;;;4934823;29;20221;-91
2024/03/24 12:10:43;;;;;;;2.73;1.17;;;;;;;;;;4891630;29;20778;-89
2024/03/24 12:13:09;;;;;;;1.63;1.30;;;;;;;;;;4885758;29;20260;-90
2024/03/24 12:15:35;;;;;;;5.30;0.77;;;;;;;;;;4870284;29;20247;-88
2024/03/24 12:18:08;;;;;;;1.57;1.47;;;;;;;;;;4864456;29;20278;-90
2024/03/24 12:20:34;;;;;;;0.93;0.93;;;;;;;;;;4873282;29;20376;-87
2024/03/24 12:23:01;;;;;;;0.57;0.50;;;;;;;;;;4885726;29;20325;-90
2024/03/24 12:25:28;;;;;;;0.73;0.40;;;;;;;;;;4869959;29;20235;-89
2024/03/24 12:28:00;;;;;;;0.50;0.50;;;;;;;;;;4885541;29;20621;-91
2024/03/24 12:30:29;;;;;;;2.23;0.73;;;;;;;;;;4903481;29;20248;-91
2024/03/24 12:32:56;;;;;;;2.63;0.93;;;;;;;;;;4920790;29;20245;-89
2024/03/24 12:35:23;;;;;;;0.67;0.67;;;;;;;;;;4921921;29;20202;-91
2024/03/24 12:37:52;;;;;;;0.20;0.20;;;;;;;;;;4920593;29;20249;-86
2024/03/24 12:40:34;;;;;;;0.10;0.10;;;;;;;;;;4934849;29;20237;-91
2024/03/24 12:43:12;;;;;;;0.23;0.23;;;;;;;;;;4920712;29;20253;-90
2024/03/24 12:45:49;;;;;;;0.37;0.33;;;;;;;;;;4920276;29;20238;-90
2024/03/24 12:48:17;;;;;;;0.20;0.20;;;;;;;;;;4919933;29;20682;-89
2024/03/24 12:50:54;;;;;;;0.93;0.93;;;;;;;;;;4921611;29;20301;-93
2024/03/24 12:53:39;;;;;;;3.20;0.97;;;;;;;;;;4904424;29;20229;-91
2024/03/24 12:56:07;;;;;;;0.40;0.40;;;;;;;;;;4912038;29;20413;-90
2024/03/24 12:58:34;;;;;;;0.43;0.43;;;;;;;;;;4919771;29;20233;-89
2024/03/24 13:01:07;;;;;;;1.83;1.73;;;;;;;;;;4928288;29;20240;-90
2024/03/24 13:03:37;;;;;;;0.57;0.57;;;;;;;;;;4919720;29;20240;-91
2024/03/24 13:06:05;;;;;;;0.30;0.30;;;;;;;;;;4920659;29;20214;-92
2024/03/24 13:08:32;;;;;;;0.37;0.37;;;;;;;;;;4920755;29;20224;-90
2024/03/24 13:10:59;;;;;;;5.83;2.00;;;;;;;;;;4919795;29;20314;-88
2024/03/24 13:13:26;;;;;;;1.03;0.70;;;;;;;;;;4935533;29;20229;-88
2024/03/24 13:15:53;;;;;;;2.90;0.67;;;;;;;;;;4920140;29;20237;-90
2024/03/24 13:18:42;;;;;;;1.47;0.60;;;;;;;;;;4919409;29;20325;-92
2024/03/24 13:21:15;;;;;;;0.50;0.50;;;;;;;;;;4914223;29;20252;-90
2024/03/24 13:23:47;;;;;;;0.80;0.80;;;;;;;;;;4920422;29;20218;-91
2024/03/24 13:26:19;;;;;;;3.50;1.57;;;;;;;;;;4919840;29;20229;-90
2024/03/24 13:28:45;;;;;;;0.43;0.30;;;;;;;;;;4913159;29;20260;-84
2024/03/24 13:31:17;;;;;;;0.80;0.80;;;;;;;;;;4919981;29;20242;-88
2024/03/24 13:37:31;;;;;;;1.60;0.87;;;;;;;;;;4827713;29;20241;-88
2024/03/24 13:40:01;;;;;;;1.20;0.57;;;;;;;;;;4862939;29;20239;-89
2024/03/24 13:42:46;;;;;;;0.23;0.23;;;;;;;;;;4862833;29;20243;-92
2024/03/24 13:45:23;;;;;;;3.50;0.67;;;;;;;;;;4863034;29;20239;-91
2024/03/24 13:47:55;;;;;;;1.63;1.23;;;;;;;;;;4862854;29;20215;-88
2024/03/24 13:50:30;;;;;;;0.60;0.60;;;;;;;;;;4863960;29;20200;-92
2024/03/24 13:52:59;;;;;;;1.17;0.77;;;;;;;;;;4862934;29;20257;-91
2024/03/24 13:55:28;;;;;;;2.77;0.73;;;;;;;;;;4863310;29;20268;-92
2024/03/24 13:57:55;;;;;;;2.73;1.30;;;;;;;;;;4863130;29;20212;-88
2024/03/24 14:00:23;;;;;;;4.07;1.33;;;;;;;;;;4863046;29;20208;-91
2024/03/24 14:02:50;;;;;;;1.33;1.20;;;;;;;;;;4863001;29;20230;-89
2024/03/24 14:05:17;;;;;;;10.80;1.70;;;;;;;;;;4863333;29;20211;-91
2024/03/24 14:07:44;;;;;;;0.90;0.53;;;;;;;;;;4878590;29;20243;-89
2024/03/24 14:10:10;;;;;;;0.20;0.20;;;;;;;;;;4869179;29;20735;-89
2024/03/24 14:12:57;;;;;;;3.30;1.33;;;;;;;;;;4920461;29;20243;-92
2024/03/24 14:15:39;;;;;;;2.87;1.43;;;;;;;;;;4936401;29;20253;-90
2024/03/24 14:18:17;;;;;;;2.00;1.20;;;;;;;;;;4936056;29;20193;-92
2024/03/24 14:20:54;;;;;;;5.83;1.63;;;;;;;;;;4920340;29;20626;-89
2024/03/24 14:23:27;;;;;;;0.20;0.20;;;;;;;;;;4920473;29;20202;-89
2024/03/24 14:26:00;;;;;;;0.30;0.30;;;;;;;;;;4920139;29;20206;-91
2024/03/24 14:28:29;;;;;;;0.20;0.20;;;;;;;;;;4920973;29;20210;-90
2024/03/24 14:31:00;;;;;;;2.67;0.70;;;;;;;;;;4920917;29;20202;-92
2024/03/24 14:33:34;;;;;;;1.90;0.73;;;;;;;;;;4909178;29;20240;-90
2024/03/24 14:36:10;;;;;;;1.07;0.83;;;;;;;;;;4924519;29;20621;-93
2024/03/24 14:38:43;;;;;;;1.43;0.60;;;;;;;;;;4924911;29;20756;-91
2024/03/24 14:41:30;;;;;;;1.40;0.80;;;;;;;;;;4930520;29;20205;-90
2024/03/24 14:44:09;;;;;;;1.67;0.80;;;;;;;;;;4943172;28;20647;-92
2024/03/24 14:46:37;;;;;;;4.43;0.90;;;;;;;;;;4925895;29;20198;-92
2024/03/24 14:49:03;;;;;;;1.07;1.07;;;;;;;;;;4938847;29;20722;-92
2024/03/24 14:51:32;;;;;;;0.30;0.30;;;;;;;;;;4923632;29;20210;-91
2024/03/24 14:54:01;;;;;;;1.60;0.57;;;;;;;;;;4923113;29;20206;-93
2024/03/24 14:56:36;;;;;;;3.20;1.40;;;;;;;;;;4908429;29;20213;-91
2024/03/24 14:59:18;;;;;;;0.60;0.60;;;;;;;;;;4922791;29;20365;-89
2024/03/24 15:01:45;;;;;;;2.50;1.27;;;;;;;;;;4922790;29;20205;-91